createdAt,value
2023-03-01T00:00:32.374Z,1004.95
2023-03-01T00:01:32.358Z,1004.87
2023-03-01T00:03:42.621Z,1004.94
2023-03-01T00:04:42.636Z,1004.97
2023-03-01T00:05:42.562Z,1004.94
2023-03-01T00:06:42.611Z,1004.90
2023-03-01T00:07:42.545Z,1004.90
2023-03-01T00:08:42.550Z,1004.86
2023-03-01T00:09:42.535Z,1004.89
2023-03-01T00:10:42.547Z,1004.87
2023-03-01T00:11:42.674Z,1004.95
2023-03-01T00:12:42.487Z,1004.84
2023-03-01T00:13:42.479Z,1004.85
2023-03-01T00:14:42.481Z,1004.90
2023-03-01T00:15:42.478Z,1004.87
2023-03-01T00:16:42.477Z,1004.89
2023-03-01T00:17:42.451Z,1004.95
2023-03-01T00:18:42.432Z,1004.99
2023-03-01T00:19:42.419Z,1004.92
2023-03-01T00:20:42.424Z,1004.93
2023-03-01T00:21:42.444Z,1004.93
2023-03-01T00:22:42.388Z,1004.98
2023-03-01T00:23:42.373Z,1004.92
2023-03-01T00:24:42.386Z,1004.95
2023-03-01T00:25:42.349Z,1004.94
2023-03-01T00:26:42.352Z,1004.89
2023-03-01T00:27:42.339Z,1004.86
2023-03-01T00:28:42.330Z,1004.90
2023-03-01T00:29:42.320Z,1004.90
2023-03-01T00:30:42.372Z,1004.99
2023-03-01T00:31:42.295Z,1004.86
2023-03-01T00:32:42.282Z,1004.92
2023-03-01T00:33:42.273Z,1004.98
2023-03-01T00:34:42.264Z,1004.94
2023-03-01T00:35:42.274Z,1004.98
2023-03-01T00:36:42.298Z,1004.91
2023-03-01T00:37:42.236Z,1004.82
2023-03-01T00:38:42.245Z,1004.73
2023-03-01T00:39:42.212Z,1004.76
2023-03-01T00:40:42.252Z,1004.78
2023-03-01T00:41:42.194Z,1004.82
2023-03-01T00:42:42.189Z,1004.85
2023-03-01T00:43:42.175Z,1004.82
2023-03-01T00:44:42.170Z,1004.90
2023-03-01T00:45:42.168Z,1004.86
2023-03-01T00:46:42.149Z,1004.81
2023-03-01T00:47:42.140Z,1004.86
2023-03-01T00:48:42.132Z,1004.83
2023-03-01T00:49:42.114Z,1004.77
2023-03-01T00:50:42.117Z,1004.84
2023-03-01T00:51:42.099Z,1004.81
2023-03-01T00:52:42.088Z,1004.80
2023-03-01T00:53:42.068Z,1004.79
2023-03-01T00:54:42.059Z,1004.75
2023-03-01T00:55:42.104Z,1004.79
2023-03-01T00:56:42.040Z,1004.82
2023-03-01T00:57:42.054Z,1004.88
2023-03-01T00:58:42.029Z,1004.82
2023-03-01T00:59:42.006Z,1004.79
2023-03-01T01:00:42.017Z,1004.80
2023-03-01T01:01:42.005Z,1004.82
2023-03-01T01:02:42.022Z,1004.85
2023-03-01T01:03:41.963Z,1004.89
2023-03-01T01:04:41.959Z,1004.78
2023-03-01T01:05:41.973Z,1004.84
2023-03-01T01:06:41.938Z,1004.75
2023-03-01T01:07:41.918Z,1004.75
2023-03-01T01:08:41.913Z,1004.79
2023-03-01T01:09:41.900Z,1004.77
2023-03-01T01:10:41.898Z,1004.73
2023-03-01T01:11:41.932Z,1004.73
2023-03-01T01:12:41.898Z,1004.75
2023-03-01T01:13:41.858Z,1004.74
2023-03-01T01:14:41.850Z,1004.79
2023-03-01T01:15:41.934Z,1004.82
2023-03-01T01:16:41.855Z,1004.82
2023-03-01T01:17:41.845Z,1004.86
2023-03-01T01:18:41.810Z,1004.78
2023-03-01T01:19:41.823Z,1004.82
2023-03-01T01:20:41.801Z,1004.95
2023-03-01T01:21:41.789Z,1004.96
2023-03-01T01:22:41.759Z,1004.78
2023-03-01T01:23:41.744Z,1004.80
2023-03-01T01:24:41.739Z,1004.78
2023-03-01T01:25:41.730Z,1004.80
2023-03-01T01:26:41.731Z,1004.73
2023-03-01T01:27:41.705Z,1004.65
2023-03-01T01:28:41.698Z,1004.73
2023-03-01T01:29:41.683Z,1004.69
2023-03-01T01:30:41.674Z,1004.74
2023-03-01T01:31:41.675Z,1004.64
2023-03-01T01:32:41.663Z,1004.64
2023-03-01T01:33:41.641Z,1004.63
2023-03-01T01:34:41.631Z,1004.67
2023-03-01T01:35:41.740Z,1004.56
2023-03-01T01:36:41.631Z,1004.52
2023-03-01T01:37:41.611Z,1004.60
2023-03-01T01:38:41.590Z,1004.63
2023-03-01T01:39:41.575Z,1004.59
2023-03-01T01:40:41.573Z,1004.58
2023-03-01T01:41:41.567Z,1004.55
2023-03-01T01:42:41.555Z,1004.53
2023-03-01T01:43:41.532Z,1004.52
2023-03-01T01:44:41.526Z,1004.50
2023-03-01T01:45:41.517Z,1004.60
2023-03-01T01:46:41.569Z,1004.48
2023-03-01T01:47:41.496Z,1004.51
2023-03-01T01:48:41.481Z,1004.43
2023-03-01T01:49:41.476Z,1004.54
2023-03-01T01:50:41.481Z,1004.45
2023-03-01T01:51:41.461Z,1004.52
2023-03-01T01:52:41.436Z,1004.48
2023-03-01T01:53:41.427Z,1004.46
2023-03-01T01:54:41.413Z,1004.52
2023-03-01T01:55:41.407Z,1004.46
2023-03-01T01:56:41.418Z,1004.45
2023-03-01T01:57:41.386Z,1004.42
2023-03-01T01:58:41.367Z,1004.46
2023-03-01T01:59:41.361Z,1004.39
2023-03-01T02:00:41.359Z,1004.42
2023-03-01T02:01:41.340Z,1004.41
2023-03-01T02:02:41.432Z,1004.38
2023-03-01T02:03:41.455Z,1004.45
2023-03-01T02:04:41.307Z,1004.39
2023-03-01T02:05:41.303Z,1004.39
2023-03-01T02:06:41.302Z,1004.38
2023-03-01T02:07:41.291Z,1004.42
2023-03-01T02:08:41.265Z,1004.47
2023-03-01T02:09:41.248Z,1004.41
2023-03-01T02:10:41.242Z,1004.48
2023-03-01T02:11:41.234Z,1004.48
2023-03-01T02:12:41.229Z,1004.42
2023-03-01T02:13:41.213Z,1004.38
2023-03-01T02:14:41.198Z,1004.31
2023-03-01T02:15:41.189Z,1004.28
2023-03-01T02:16:41.175Z,1004.26
2023-03-01T02:17:41.187Z,1004.33
2023-03-01T02:18:41.162Z,1004.31
2023-03-01T02:19:41.153Z,1004.41
2023-03-01T02:20:41.133Z,1004.21
2023-03-01T02:21:41.126Z,1004.24
2023-03-01T02:22:41.134Z,1004.17
2023-03-01T02:23:41.107Z,1004.28
2023-03-01T02:24:41.094Z,1004.16
2023-03-01T02:25:41.090Z,1004.28
2023-03-01T02:26:41.075Z,1004.31
2023-03-01T02:27:41.086Z,1004.27
2023-03-01T02:28:41.051Z,1004.20
2023-03-01T02:29:41.045Z,1004.25
2023-03-01T02:30:41.041Z,1004.16
2023-03-01T02:31:41.078Z,1004.24
2023-03-01T02:32:41.028Z,1004.24
2023-03-01T02:33:40.999Z,1004.25
2023-03-01T02:34:41.004Z,1004.21
2023-03-01T02:35:40.999Z,1004.17
2023-03-01T02:36:40.981Z,1004.18
2023-03-01T02:37:40.972Z,1004.18
2023-03-01T02:38:40.952Z,1004.21
2023-03-01T02:39:40.950Z,1004.14
2023-03-01T02:40:40.930Z,1004.17
2023-03-01T02:41:40.914Z,1004.17
2023-03-01T02:45:32.886Z,1004.14
2023-03-01T02:46:33.313Z,1004.03
2023-03-01T02:47:32.865Z,1004.07
2023-03-01T02:48:32.846Z,1004.08
2023-03-01T02:49:32.837Z,1004.06
2023-03-01T02:50:32.826Z,1003.93
2023-03-01T02:51:32.820Z,1004.10
2023-03-01T02:52:32.795Z,1003.97
2023-03-01T02:53:32.809Z,1004.03
2023-03-01T02:54:32.776Z,1003.94
2023-03-01T02:55:32.771Z,1003.98
2023-03-01T02:56:32.930Z,1003.97
2023-03-01T02:57:32.745Z,1003.93
2023-03-01T02:58:32.745Z,1004.00
2023-03-01T02:59:32.726Z,1003.88
2023-03-01T03:00:32.721Z,1003.90
2023-03-01T03:01:32.706Z,1003.96
2023-03-01T03:02:32.691Z,1003.93
2023-03-01T03:03:32.723Z,1003.88
2023-03-01T03:04:32.687Z,1003.91
2023-03-01T03:05:32.660Z,1003.81
2023-03-01T03:06:32.745Z,1003.87
2023-03-01T03:07:32.644Z,1003.78
2023-03-01T03:08:32.674Z,1003.79
2023-03-01T03:09:32.624Z,1003.88
2023-03-01T03:10:32.604Z,1003.82
2023-03-01T03:11:32.595Z,1003.89
2023-03-01T03:12:32.582Z,1003.89
2023-03-01T03:13:32.582Z,1003.85
2023-03-01T03:14:32.556Z,1003.88
2023-03-01T03:15:32.561Z,1003.81
2023-03-01T03:16:32.965Z,1003.82
2023-03-01T03:17:32.535Z,1003.90
2023-03-01T03:18:32.535Z,1003.86
2023-03-01T03:19:32.517Z,1003.89
2023-03-01T03:20:32.508Z,1004.01
2023-03-01T03:21:32.495Z,1004.04
2023-03-01T03:22:32.474Z,1004.06
2023-03-01T03:23:32.474Z,1003.88
2023-03-01T03:24:32.492Z,1003.85
2023-03-01T03:25:32.447Z,1003.86
2023-03-01T03:26:32.691Z,1003.93
2023-03-01T03:27:32.497Z,1003.86
2023-03-01T03:28:32.435Z,1003.86
2023-03-01T03:29:32.411Z,1003.87
2023-03-01T03:30:32.408Z,1003.97
2023-03-01T03:31:32.440Z,1003.88
2023-03-01T03:32:32.440Z,1003.83
2023-03-01T03:33:32.375Z,1003.93
2023-03-01T03:34:32.354Z,1003.91
2023-03-01T03:35:32.401Z,1003.82
2023-03-01T03:36:32.504Z,1003.87
2023-03-01T03:37:32.316Z,1003.80
2023-03-01T03:38:32.316Z,1003.86
2023-03-01T03:39:32.296Z,1003.84
2023-03-01T03:40:32.288Z,1003.87
2023-03-01T03:41:32.275Z,1003.76
2023-03-01T03:42:32.267Z,1003.83
2023-03-01T03:43:32.277Z,1003.84
2023-03-01T03:44:32.260Z,1003.80
2023-03-01T03:45:32.282Z,1003.81
2023-03-01T03:46:32.707Z,1003.81
2023-03-01T03:47:32.258Z,1003.80
2023-03-01T03:48:32.260Z,1003.79
2023-03-01T03:49:32.191Z,1003.79
2023-03-01T03:50:32.183Z,1003.74
2023-03-01T03:51:32.174Z,1003.81
2023-03-01T03:52:32.156Z,1003.68
2023-03-01T03:53:32.163Z,1003.72
2023-03-01T03:54:32.136Z,1003.71
2023-03-01T03:55:32.147Z,1003.71
2023-03-01T03:56:32.489Z,1003.70
2023-03-01T03:57:32.107Z,1003.74
2023-03-01T03:58:32.113Z,1003.66
2023-03-01T03:59:32.124Z,1003.64
2023-03-01T04:00:32.070Z,1003.77
2023-03-01T04:01:32.104Z,1003.61
2023-03-01T04:02:32.116Z,1003.61
2023-03-01T04:03:32.061Z,1003.63
2023-03-01T04:04:32.031Z,1003.59
2023-03-01T04:05:32.021Z,1003.67
2023-03-01T04:06:32.312Z,1003.62
2023-03-01T04:07:31.998Z,1003.65
2023-03-01T04:08:32.000Z,1003.55
2023-03-01T04:09:31.982Z,1003.55
2023-03-01T04:10:31.970Z,1003.53
2023-03-01T04:11:31.964Z,1003.55
2023-03-01T04:12:31.951Z,1003.68
2023-03-01T04:13:31.953Z,1003.64
2023-03-01T04:14:31.932Z,1003.54
2023-03-01T04:15:31.922Z,1003.53
2023-03-01T04:16:32.459Z,1003.47
2023-03-01T04:17:31.901Z,1003.42
2023-03-01T04:18:31.899Z,1003.45
2023-03-01T04:19:31.885Z,1003.47
2023-03-01T04:20:31.874Z,1003.41
2023-03-01T04:21:31.867Z,1003.35
2023-03-01T04:22:31.842Z,1003.42
2023-03-01T04:23:31.841Z,1003.35
2023-03-01T04:24:31.836Z,1003.42
2023-03-01T04:25:31.815Z,1003.48
2023-03-01T04:26:32.138Z,1003.33
2023-03-01T04:27:31.792Z,1003.34
2023-03-01T04:28:31.780Z,1003.30
2023-03-01T04:29:31.783Z,1003.35
2023-03-01T04:30:31.757Z,1003.45
2023-03-01T04:31:31.811Z,1003.32
2023-03-01T04:32:31.838Z,1003.39
2023-03-01T04:33:31.732Z,1003.32
2023-03-01T04:34:31.728Z,1003.46
2023-03-01T04:35:31.803Z,1003.35
2023-03-01T04:36:32.093Z,1003.34
2023-03-01T04:37:31.686Z,1003.32
2023-03-01T04:38:31.673Z,1003.28
2023-03-01T04:39:31.674Z,1003.27
2023-03-01T04:40:31.655Z,1003.28
2023-03-01T04:41:31.657Z,1003.39
2023-03-01T04:42:31.624Z,1003.31
2023-03-01T04:43:31.620Z,1003.30
2023-03-01T04:44:31.626Z,1003.26
2023-03-01T04:45:31.611Z,1003.31
2023-03-01T04:46:31.858Z,1003.25
2023-03-01T04:47:31.579Z,1003.35
2023-03-01T04:48:31.572Z,1003.31
2023-03-01T04:49:31.569Z,1003.37
2023-03-01T04:50:31.565Z,1003.31
2023-03-01T04:51:31.537Z,1003.32
2023-03-01T04:52:31.552Z,1003.36
2023-03-01T04:53:31.510Z,1003.25
2023-03-01T04:54:31.518Z,1003.25
2023-03-01T04:55:31.494Z,1003.31
2023-03-01T04:56:31.817Z,1003.32
2023-03-01T04:57:31.475Z,1003.28
2023-03-01T04:58:31.465Z,1003.23
2023-03-01T04:59:31.470Z,1003.22
2023-03-01T05:00:31.440Z,1003.16
2023-03-01T05:01:31.442Z,1003.29
2023-03-01T05:02:31.443Z,1003.25
2023-03-01T05:03:31.408Z,1003.21
2023-03-01T05:04:31.479Z,1003.31
2023-03-01T05:05:31.393Z,1003.32
2023-03-01T05:06:31.719Z,1003.28
2023-03-01T05:07:31.363Z,1003.29
2023-03-01T05:08:31.351Z,1003.32
2023-03-01T05:09:31.356Z,1003.23
2023-03-01T05:10:31.329Z,1003.33
2023-03-01T05:11:31.333Z,1003.26
2023-03-01T05:12:31.315Z,1003.32
2023-03-01T05:13:31.308Z,1003.27
2023-03-01T05:14:31.301Z,1003.22
2023-03-01T05:15:31.361Z,1003.23
2023-03-01T05:16:33.015Z,1003.27
2023-03-01T05:17:31.262Z,1003.33
2023-03-01T05:18:31.249Z,1003.34
2023-03-01T05:19:31.249Z,1003.28
2023-03-01T05:20:31.236Z,1003.37
2023-03-01T05:21:32.400Z,1003.37
2023-03-01T05:22:32.354Z,1003.29
2023-03-01T05:23:32.343Z,1003.33
2023-03-01T05:24:32.375Z,1003.27
2023-03-01T05:25:32.335Z,1003.33
2023-03-01T05:26:32.353Z,1003.31
2023-03-01T05:27:32.327Z,1003.30
2023-03-01T05:28:32.301Z,1003.32
2023-03-01T05:29:32.307Z,1003.32
2023-03-01T05:30:32.338Z,1003.29
2023-03-01T05:31:32.364Z,1003.26
2023-03-01T05:32:32.274Z,1003.24
2023-03-01T05:33:32.252Z,1003.26
2023-03-01T05:34:32.272Z,1003.23
2023-03-01T05:35:32.273Z,1003.23
2023-03-01T05:36:32.645Z,1003.22
2023-03-01T05:37:32.214Z,1003.21
2023-03-01T05:38:32.196Z,1003.24
2023-03-01T05:39:32.212Z,1003.25
2023-03-01T05:40:32.175Z,1003.19
2023-03-01T05:41:32.195Z,1003.27
2023-03-01T05:42:32.145Z,1003.25
2023-03-01T05:43:32.178Z,1003.23
2023-03-01T05:44:32.194Z,1003.25
2023-03-01T05:45:32.128Z,1003.19
2023-03-01T05:46:32.480Z,1003.35
2023-03-01T05:47:32.115Z,1003.22
2023-03-01T05:48:32.115Z,1003.18
2023-03-01T05:49:32.109Z,1003.22
2023-03-01T05:50:32.070Z,1003.30
2023-03-01T05:51:33.093Z,1003.29
2023-03-01T05:52:32.070Z,1003.20
2023-03-01T05:53:32.061Z,1003.33
2023-03-01T05:54:32.062Z,1003.27
2023-03-01T05:55:32.044Z,1003.20
2023-03-01T05:56:32.430Z,1003.24
2023-03-01T05:57:32.018Z,1003.22
2023-03-01T05:58:32.015Z,1003.30
2023-03-01T05:59:32.033Z,1003.29
2023-03-01T06:00:31.990Z,1003.38
2023-03-01T06:01:31.985Z,1003.28
2023-03-01T06:02:32.009Z,1003.23
2023-03-01T06:03:31.967Z,1003.25
2023-03-01T06:04:32.007Z,1003.28
2023-03-01T06:05:32.046Z,1003.33
2023-03-01T06:06:32.281Z,1003.27
2023-03-01T06:07:31.921Z,1003.31
2023-03-01T06:08:31.914Z,1003.32
2023-03-01T06:09:31.942Z,1003.21
2023-03-01T06:10:31.882Z,1003.29
2023-03-01T06:11:31.879Z,1003.20
2023-03-01T06:12:31.865Z,1003.27
2023-03-01T06:13:31.889Z,1003.29
2023-03-01T06:14:31.862Z,1003.26
2023-03-01T06:15:31.895Z,1003.30
2023-03-01T06:16:32.368Z,1003.36
2023-03-01T06:17:31.817Z,1003.31
2023-03-01T06:18:31.824Z,1003.34
2023-03-01T06:19:31.828Z,1003.35
2023-03-01T06:20:31.828Z,1003.31
2023-03-01T06:21:31.809Z,1003.33
2023-03-01T06:22:31.786Z,1003.29
2023-03-01T06:23:31.760Z,1003.32
2023-03-01T06:24:31.762Z,1003.33
2023-03-01T06:25:31.756Z,1003.38
2023-03-01T06:26:32.001Z,1003.37
2023-03-01T06:27:31.730Z,1003.28
2023-03-01T06:28:31.719Z,1003.35
2023-03-01T06:29:31.771Z,1003.34
2023-03-01T06:30:31.734Z,1003.38
2023-03-01T06:31:31.902Z,1003.39
2023-03-01T06:32:31.741Z,1003.32
2023-03-01T06:33:31.727Z,1003.26
2023-03-01T06:34:31.822Z,1003.17
2023-03-01T06:35:31.760Z,1003.21
2023-03-01T06:36:32.103Z,1003.16
2023-03-01T06:37:31.650Z,1003.09
2023-03-01T06:38:31.600Z,1003.07
2023-03-01T06:39:31.647Z,1003.08
2023-03-01T06:40:31.612Z,1003.08
2023-03-01T06:41:31.578Z,1003.02
2023-03-01T06:42:31.568Z,1003.06
2023-03-01T06:43:31.554Z,1003.09
2023-03-01T06:44:31.566Z,1003.16
2023-03-01T06:45:32.548Z,1003.19
2023-03-01T06:46:31.945Z,1003.13
2023-03-01T06:47:31.538Z,1003.16
2023-03-01T06:48:31.517Z,1003.14
2023-03-01T06:49:31.506Z,1003.12
2023-03-01T06:50:31.553Z,1003.16
2023-03-01T06:51:31.472Z,1003.16
2023-03-01T06:52:31.481Z,1003.18
2023-03-01T06:53:31.482Z,1003.12
2023-03-01T06:54:31.458Z,1003.14
2023-03-01T06:55:31.435Z,1003.20
2023-03-01T06:56:31.722Z,1003.10
2023-03-01T06:57:31.413Z,1003.13
2023-03-01T06:58:31.414Z,1003.13
2023-03-01T06:59:31.444Z,1003.15
2023-03-01T07:00:31.504Z,1003.11
2023-03-01T07:01:31.441Z,1003.26
2023-03-01T07:02:31.446Z,1003.20
2023-03-01T07:03:32.044Z,1003.26
2023-03-01T07:04:31.377Z,1003.23
2023-03-01T07:05:31.398Z,1003.24
2023-03-01T07:06:31.810Z,1003.24
2023-03-01T07:07:31.388Z,1003.16
2023-03-01T07:08:31.335Z,1003.23
2023-03-01T07:09:31.303Z,1003.12
2023-03-01T07:10:31.360Z,1003.26
2023-03-01T07:11:31.330Z,1003.24
2023-03-01T07:12:31.318Z,1003.24
2023-03-01T07:13:31.287Z,1003.21
2023-03-01T07:14:31.248Z,1003.15
2023-03-01T07:15:31.251Z,1003.15
2023-03-01T07:16:31.940Z,1003.18
2023-03-01T07:17:31.345Z,1003.28
2023-03-01T07:18:31.274Z,1003.26
2023-03-01T07:19:31.266Z,1003.24
2023-03-01T07:20:31.274Z,1003.13
2023-03-01T07:21:31.205Z,1003.10
2023-03-01T07:22:31.247Z,1003.17
2023-03-01T07:23:31.259Z,1003.19
2023-03-01T07:24:31.293Z,1003.13
2023-03-01T07:25:31.207Z,1003.11
2023-03-01T07:26:31.474Z,1003.14
2023-03-01T07:27:31.207Z,1003.15
2023-03-01T07:28:31.237Z,1003.14
2023-03-01T07:29:31.142Z,1003.26
2023-03-01T07:30:31.160Z,1003.18
2023-03-01T07:31:31.145Z,1003.14
2023-03-01T07:32:31.179Z,1003.13
2023-03-01T07:33:31.165Z,1003.16
2023-03-01T07:35:57.072Z,1003.17
2023-03-01T07:35:58.797Z,1003.25
2023-03-01T07:36:58.799Z,1003.12
2023-03-01T07:37:58.765Z,1003.15
2023-03-01T07:38:58.677Z,1003.21
2023-03-01T07:39:58.707Z,1003.28
2023-03-01T07:40:58.691Z,1003.14
2023-03-01T07:41:59.099Z,1003.19
2023-03-01T07:42:58.640Z,1003.20
2023-03-01T07:43:58.687Z,1003.24
2023-03-01T07:44:58.703Z,1003.19
2023-03-01T07:45:58.722Z,1003.18
2023-03-01T07:46:58.617Z,1003.23
2023-03-01T07:47:58.564Z,1003.31
2023-03-01T07:48:58.605Z,1003.23
2023-03-01T07:49:58.584Z,1003.18
2023-03-01T07:50:58.560Z,1003.20
2023-03-01T07:51:58.522Z,1003.16
2023-03-01T07:52:58.565Z,1003.20
2023-03-01T07:53:59.578Z,1003.23
2023-03-01T07:54:58.588Z,1003.21
2023-03-01T07:55:58.555Z,1003.11
2023-03-01T07:56:58.554Z,1003.22
2023-03-01T07:57:58.462Z,1003.11
2023-03-01T07:58:59.667Z,1003.16
2023-03-01T07:59:58.487Z,1003.09
2023-03-01T08:00:58.448Z,1003.15
2023-03-01T08:01:58.487Z,1003.19
2023-03-01T08:02:58.446Z,1003.16
2023-03-01T08:03:58.440Z,1003.19
2023-03-01T08:04:58.509Z,1003.18
2023-03-01T08:05:58.592Z,1003.20
2023-03-01T08:06:58.410Z,1003.21
2023-03-01T08:07:58.380Z,1003.12
2023-03-01T08:08:58.379Z,1003.17
2023-03-01T08:09:58.342Z,1003.24
2023-03-01T08:10:58.464Z,1003.22
2023-03-01T08:11:58.448Z,1003.18
2023-03-01T08:12:58.383Z,1003.12
2023-03-01T08:13:58.420Z,1003.20
2023-03-01T08:14:58.319Z,1003.12
2023-03-01T08:15:58.362Z,1003.13
2023-03-01T08:16:58.405Z,1003.07
2023-03-01T08:17:58.279Z,1003.10
2023-03-01T08:18:58.288Z,1003.06
2023-03-01T08:19:58.294Z,1003.08
2023-03-01T08:20:58.264Z,1002.92
2023-03-01T08:21:58.316Z,1003.08
2023-03-01T08:22:58.407Z,1003.02
2023-03-01T08:23:58.216Z,1002.98
2023-03-01T08:24:58.249Z,1003.07
2023-03-01T08:25:58.204Z,1003.04
2023-03-01T08:26:58.202Z,1002.94
2023-03-01T08:27:58.159Z,1003.06
2023-03-01T08:28:58.220Z,1002.99
2023-03-01T08:29:58.200Z,1003.03
2023-03-01T08:30:58.138Z,1003.04
2023-03-01T08:31:58.189Z,1002.91
2023-03-01T08:32:58.212Z,1002.97
2023-03-01T08:33:58.172Z,1003.01
2023-03-01T08:34:58.120Z,1003.02
2023-03-01T08:35:58.286Z,1002.98
2023-03-01T08:36:58.114Z,1002.97
2023-03-01T08:37:58.102Z,1002.98
2023-03-01T08:38:58.108Z,1002.91
2023-03-01T08:39:58.142Z,1002.92
2023-03-01T08:40:58.097Z,1002.96
2023-03-01T08:41:58.084Z,1002.95
2023-03-01T08:42:58.077Z,1002.88
2023-03-01T08:43:58.059Z,1002.88
2023-03-01T08:44:58.355Z,1002.96
2023-03-01T08:45:58.101Z,1002.90
2023-03-01T08:46:58.332Z,1002.91
2023-03-01T08:47:58.077Z,1002.86
2023-03-01T08:48:58.034Z,1002.91
2023-03-01T08:49:57.959Z,1002.89
2023-03-01T08:50:57.990Z,1002.93
2023-03-01T08:51:58.023Z,1002.75
2023-03-01T08:52:57.976Z,1002.79
2023-03-01T08:53:57.939Z,1002.82
2023-03-01T08:54:57.938Z,1002.76
2023-03-01T08:55:57.991Z,1002.76
2023-03-01T08:56:57.946Z,1002.71
2023-03-01T08:57:57.920Z,1002.76
2023-03-01T08:58:57.898Z,1002.83
2023-03-01T08:59:57.902Z,1002.75
2023-03-01T09:00:57.905Z,1002.79
2023-03-01T09:01:58.662Z,1002.75
2023-03-01T09:02:57.916Z,1002.74
2023-03-01T09:03:57.905Z,1002.71
2023-03-01T09:04:57.858Z,1002.77
2023-03-01T09:05:57.850Z,1002.70
2023-03-01T09:06:57.783Z,1002.69
2023-03-01T09:07:57.921Z,1002.77
2023-03-01T09:08:57.794Z,1002.67
2023-03-01T09:09:57.773Z,1002.68
2023-03-01T09:10:57.794Z,1002.68
2023-03-01T09:11:57.801Z,1002.71
2023-03-01T09:12:57.756Z,1002.73
2023-03-01T09:13:57.715Z,1002.78
2023-03-01T09:14:57.722Z,1002.69
2023-03-01T09:15:57.699Z,1002.66
2023-03-01T09:16:57.791Z,1002.73
2023-03-01T09:17:57.695Z,1002.68
2023-03-01T09:18:57.646Z,1002.78
2023-03-01T09:19:57.654Z,1002.64
2023-03-01T09:20:57.688Z,1002.71
2023-03-01T09:21:57.685Z,1002.63
2023-03-01T09:22:57.667Z,1002.67
2023-03-01T09:23:57.618Z,1002.60
2023-03-01T09:24:57.662Z,1002.64
2023-03-01T09:25:57.603Z,1002.55
2023-03-01T09:26:57.609Z,1002.53
2023-03-01T09:27:57.548Z,1002.64
2023-03-01T09:28:57.624Z,1002.62
2023-03-01T09:30:03.024Z,1002.48
2023-03-01T09:30:58.675Z,1002.53
2023-03-01T09:31:57.615Z,1002.45
2023-03-01T09:32:57.541Z,1002.43
2023-03-01T09:33:57.596Z,1002.48
2023-03-01T09:34:57.552Z,1002.51
2023-03-01T09:35:57.591Z,1002.46
2023-03-01T09:36:57.599Z,1002.46
2023-03-01T09:37:57.489Z,1002.40
2023-03-01T09:38:58.070Z,1002.34
2023-03-01T09:39:57.549Z,1002.47
2023-03-01T09:41:03.643Z,1002.40
2023-03-01T09:42:10.770Z,1002.43
2023-03-01T09:43:12.789Z,1002.39
2023-03-01T09:43:58.489Z,1002.44
2023-03-01T09:44:57.515Z,1002.39
2023-03-01T09:45:57.490Z,1002.43
2023-03-01T09:46:57.540Z,1002.36
2023-03-01T09:47:57.405Z,1002.42
2023-03-01T09:48:57.753Z,1002.37
2023-03-01T09:49:57.519Z,1002.37
2023-03-01T09:50:57.479Z,1002.50
2023-03-01T09:51:57.538Z,1002.47
2023-03-01T09:52:57.376Z,1002.48
2023-03-01T09:53:57.361Z,1002.40
2023-03-01T09:54:59.611Z,1002.39
2023-03-01T09:55:58.337Z,1002.37
2023-03-01T09:56:57.359Z,1002.42
2023-03-01T09:57:57.349Z,1002.36
2023-03-01T09:58:58.764Z,1002.34
2023-03-01T09:59:57.330Z,1002.36
2023-03-01T10:00:57.354Z,1002.39
2023-03-01T10:01:57.268Z,1002.31
2023-03-01T10:02:57.331Z,1002.24
2023-03-01T10:03:57.386Z,1002.31
2023-03-01T10:04:57.305Z,1002.38
2023-03-01T10:05:57.983Z,1002.29
2023-03-01T10:06:57.302Z,1002.23
2023-03-01T10:07:57.294Z,1002.18
2023-03-01T10:08:57.282Z,1002.22
2023-03-01T10:09:57.373Z,1002.25
2023-03-01T10:10:57.340Z,1002.22
2023-03-01T10:11:57.300Z,1002.16
2023-03-01T10:12:57.654Z,1002.18
2023-03-01T10:13:57.451Z,1002.21
2023-03-01T10:21:44.033Z,1002.08
2023-03-01T10:22:16.033Z,1002.08
2023-03-01T10:23:18.591Z,1002.01
2023-03-01T10:24:17.425Z,1002.04
2023-03-01T10:25:25.412Z,1001.98
2023-03-01T10:26:14.854Z,1002.03
2023-03-01T10:27:14.864Z,1001.93
2023-03-01T10:28:14.832Z,1001.93
2023-03-01T10:29:14.821Z,1001.93
2023-03-01T10:30:14.824Z,1002.00
2023-03-01T10:31:14.831Z,1001.94
2023-03-01T10:32:14.805Z,1001.97
2023-03-01T10:33:14.761Z,1001.97
2023-03-01T10:34:14.753Z,1001.98
2023-03-01T10:35:15.924Z,1001.86
2023-03-01T10:36:14.753Z,1001.85
2023-03-01T10:37:14.719Z,1001.83
2023-03-01T10:38:14.725Z,1001.99
2023-03-01T10:39:14.692Z,1001.83
2023-03-01T10:40:14.694Z,1001.92
2023-03-01T10:41:14.699Z,1001.92
2023-03-01T10:42:14.756Z,1001.99
2023-03-01T10:43:14.657Z,1001.91
2023-03-01T10:44:14.677Z,1001.96
2023-03-01T10:45:14.628Z,1001.92
2023-03-01T10:46:14.700Z,1001.84
2023-03-01T10:47:14.656Z,1001.88
2023-03-01T10:48:14.622Z,1001.87
2023-03-01T10:49:14.604Z,1001.84
2023-03-01T10:50:14.633Z,1001.84
2023-03-01T10:51:14.625Z,1001.85
2023-03-01T10:52:14.589Z,1001.79
2023-03-01T10:53:14.546Z,1001.86
2023-03-01T10:54:14.531Z,1001.89
2023-03-01T10:55:14.526Z,1001.84
2023-03-01T10:56:14.548Z,1001.79
2023-03-01T10:57:14.525Z,1001.75
2023-03-01T10:58:14.497Z,1001.74
2023-03-01T10:59:14.493Z,1001.74
2023-03-01T11:00:14.488Z,1001.75
2023-03-01T11:01:14.530Z,1001.78
2023-03-01T11:02:24.041Z,1001.69
2023-03-01T11:03:15.447Z,1001.77
2023-03-01T11:04:14.522Z,1001.75
2023-03-01T11:05:14.435Z,1001.73
2023-03-01T11:06:14.408Z,1001.68
2023-03-01T11:07:14.426Z,1001.72
2023-03-01T11:08:14.384Z,1001.75
2023-03-01T11:09:14.413Z,1001.70
2023-03-01T11:10:14.426Z,1001.68
2023-03-01T11:11:14.398Z,1001.85
2023-03-01T11:12:14.390Z,1001.77
2023-03-01T11:13:14.383Z,1001.73
2023-03-01T11:14:25.887Z,1001.71
2023-03-01T11:15:15.356Z,1001.70
2023-03-01T11:16:14.357Z,1001.72
2023-03-01T11:17:14.336Z,1001.74
2023-03-01T11:18:14.564Z,1001.69
2023-03-01T11:19:14.283Z,1001.67
2023-03-01T11:20:14.298Z,1001.58
2023-03-01T11:21:14.281Z,1001.59
2023-03-01T11:22:14.325Z,1001.64
2023-03-01T11:23:14.309Z,1001.66
2023-03-01T11:24:14.245Z,1001.68
2023-03-01T11:25:14.241Z,1001.68
2023-03-01T11:26:14.217Z,1001.63
2023-03-01T11:27:14.222Z,1001.63
2023-03-01T11:28:14.189Z,1001.71
2023-03-01T11:29:14.183Z,1001.66
2023-03-01T11:30:14.193Z,1001.61
2023-03-01T11:31:14.277Z,1001.65
2023-03-01T11:32:14.235Z,1001.55
2023-03-01T11:33:14.340Z,1001.53
2023-03-01T11:34:14.166Z,1001.51
2023-03-01T11:35:14.141Z,1001.54
2023-03-01T11:36:14.129Z,1001.49
2023-03-01T11:37:14.126Z,1001.52
2023-03-01T11:38:14.088Z,1001.54
2023-03-01T11:39:14.073Z,1001.54
2023-03-01T11:40:14.177Z,1001.47
2023-03-01T11:41:14.076Z,1001.51
2023-03-01T11:42:19.101Z,1001.52
2023-03-01T11:43:15.141Z,1001.47
2023-03-01T11:44:14.044Z,1001.43
2023-03-01T11:45:14.032Z,1001.54
2023-03-01T11:46:14.069Z,1001.60
2023-03-01T11:47:14.293Z,1001.56
2023-03-01T11:48:14.012Z,1001.49
2023-03-01T11:49:13.986Z,1001.43
2023-03-01T11:50:13.966Z,1001.47
2023-03-01T11:51:15.104Z,1001.58
2023-03-01T11:52:13.959Z,1001.48
2023-03-01T11:53:13.941Z,1001.44
2023-03-01T11:54:13.922Z,1001.42
2023-03-01T11:55:13.908Z,1001.38
2023-03-01T11:56:13.905Z,1001.44
2023-03-01T11:57:13.941Z,1001.32
2023-03-01T11:58:13.893Z,1001.38
2023-03-01T11:59:15.200Z,1001.33
2023-03-01T12:00:13.968Z,1001.28
2023-03-01T12:01:15.030Z,1001.27
2023-03-01T12:02:15.081Z,1001.30
2023-03-01T12:03:15.059Z,1001.33
2023-03-01T12:04:15.057Z,1001.33
2023-03-01T12:05:15.349Z,1001.35
2023-03-01T12:06:15.015Z,1001.30
2023-03-01T12:07:15.021Z,1001.32
2023-03-01T12:08:15.020Z,1001.35
2023-03-01T12:09:15.024Z,1001.39
2023-03-01T12:10:15.027Z,1001.27
2023-03-01T12:11:14.977Z,1001.36
2023-03-01T12:12:14.972Z,1001.31
2023-03-01T12:13:15.016Z,1001.35
2023-03-01T12:14:15.018Z,1001.29
2023-03-01T12:15:14.952Z,1001.25
2023-03-01T12:16:16.266Z,1001.24